Accueil
METAR-TAF:

METAR-TAF

Aéroports :

Aérodrome de Maré - La Roche

Maré, Nouvelle-Calédonie

latitude: 21-28-53S, longitude: 168-02-15E, altitude: 42 m

METAR: absent

Heure: 19:37 (08:37 UTC)

Prévision

Le bulletin a été fait il y a 15 heures et 37 minutes, à 17:00 UTC
Prévision valable du 10 à 18 UTC au 11 à 18 UTC
Vent 6 kt de est/sud-est
Visibilité 10 km ou plus
Nuages épars à une hauteur de 3000 ft
Nuages fragmentés à une hauteur de 5000 ft
Probabilité 40% :
Temporairement
du 11 à 00 UTC au 11 à 05 UTC
Vent 10 kt de est/sud-est avec des rafales jusqu'à 20 kt

TAF: NWWR 101700Z 1018/1118 12006KT 9999 SCT030 BKN050 PROB40 TEMPO 1100/1105 11010G20KT

Observations et prévisions météorologiques de plus de 4000 aéroports (messages METAR et TAF).

Les stations disponibles sont représentées par des disques jaunes et rouges sur la carte.

Passer la souris dessus pour voir le nom de la station.

Cliquer dessus pour voir les observations et prévisions météorologiques.

Pour changer de carte: cliquez sur les boutons verts avec une croix noire pour zoomer, sur le bouton vert avec un tiret pour effectuer un zoom arrière, ou sur les flèches vertes pour les cartes adjacentes.


METAR-TAF: